Tropical Cyclones
[Index]
Main Index Home Page Stock Weather Photos Extreme Storms Discussion Storm News and Storm Chasing Reports Tropical Cyclones / Hurricanes / Typhoons Weather Data and Links Wild Fires / Bushfires Weather Observation Techniques Weather Picture Catalogue Tornado Pictures and Reports Stock Video Footage and DVDs for sale
Season 1998-1999 Tropical Cyclone OLINDA Track Map
Season 1998-1999 Summaries (Operational Data): [AU] [SIO] [SPAC] [SH]
<<- Previous TC | 1998-1999 Season | Next TC ->>

click for intensity scale information  Lat/long Grid: Show Hide

 Date Labels: Show Hide

Operational Tropical Cyclone Data : JTWC Advisories

Name: OLINDA
Number: 9913

19 Jan 1999 06:00 UTC to 24 Jan 1999 23:00 UTC

    date/time    lat    long     hPa   cat  kts
1999-01-19 06   15.0   155.0     997                     
1999-01-19 18   16.5   153.0     997                     
1999-01-20 12   17.3   158.4     993         25          
1999-01-20 18   17.7   158.4     993         25          
1999-01-21 00   18.0   158.5     992         25          
1999-01-21 06   18.8   158.8     990         30          
1999-01-21 12   19.1   159.2     990         30          
1999-01-21 18   20.0   159.4     987    1    45          
1999-01-22 00   20.7   160.7     985    1    45          
1999-01-22 06   22.4   162.2     985    1    45          
1999-01-22 12   23.4   163.2     985    1    45          
1999-01-22 18   23.9   164.9     985    2    50          
1999-01-23 00   24.9   166.6     985    2    50          
1999-01-23 05   25.9   169.6     985    2    50          
1999-01-23 11   26.0   171.0     985    2    55          
1999-01-23 18   25.5   172.5     985    2    55          
1999-01-23 23   26.1   173.8     986    2    50          
1999-01-24 05   26.0   175.0     987    1    45          
1999-01-24 11   26.0   176.0     987    1    45          
1999-01-24 17   26.5   177.5     990    1    45          
1999-01-24 23   26.8   178.3     990    1    45          
Winds are 10-min average.

Tropical cyclone tracks developed by Michael Bath using operational warnings and advisories and Google Maps.


[Australian Severe Weather index] [Copyright Notice] [Email Contacts] [Search This Site] [Privacy Policy]
Document: tropical_cyclone_olinda.htm Updated: 28 May 2013